Time,TemperatureF,DewpointF,PressureIn,WindDirection,WindDirectionDegrees,WindSpeedMPH,WindSpeedGustMPH,Humidity,HourlyPrecipIn,Conditions,Clouds,dailyrainin,SolarRadiationWatts/m^2,SoftwareType,DateUTC
2013-08-21 00:00:00,63.0,48.9,29.89,North,-999,6.0,7.0,60,0.00,,,0.00,0.00,VWS V14.01,2013-08-21 06:00:00,
2013-08-21 00:05:00,62.9,48.8,29.89,North,-999,6.0,10.0,60,0.00,,,0.00,0.00,VWS V14.01,2013-08-21 06:05:00,
2013-08-21 00:10:00,63.1,48.6,29.89,North,-999,7.0,7.0,59,0.00,,,0.00,0.00,VWS V14.01,2013-08-21 06:10:00,
2013-08-21 00:15:00,63.6,48.1,29.89,North,-999,5.0,7.0,57,0.00,,,0.00,0.00,VWS V14.01,2013-08-21 06:15:00,
2013-08-21 00:20:00,63.7,48.2,29.89,North,-999,6.0,7.0,57,0.00,,,0.00,0.00,VWS V14.01,2013-08-21 06:20:00,
2013-08-21 00:25:00,63.6,47.2,29.89,North,-999,5.0,7.0,55,0.00,,,0.00,0.00,VWS V14.01,2013-08-21 06:25:00,
2013-08-21 00:30:00,63.6,46.7,29.89,North,-999,5.0,6.0,54,0.00,,,0.00,0.00,VWS V14.01,2013-08-21 06:30:00,
2013-08-21 00:35:00,64.0,46.0,29.89,North,-999,4.0,6.0,52,0.00,,,0.00,0.00,VWS V14.01,2013-08-21 06:35:00,
2013-08-21 00:40:00,64.4,46.4,29.89,North,-999,7.0,7.0,52,0.00,,,0.00,0.00,VWS V14.01,2013-08-21 06:40:00,
2013-08-21 00:45:00,64.7,46.2,29.89,North,-999,7.0,10.0,51,0.00,,,0.00,0.00,VWS V14.01,2013-08-21 06:45:00,
2013-08-21 00:50:00,64.9,45.8,29.89,North,-999,7.0,10.0,50,0.00,,,0.00,0.00,VWS V14.01,2013-08-21 06:50:00,
2013-08-21 00:55:00,65.0,46.5,29.89,North,-999,7.0,10.0,51,0.00,,,0.00,0.00,VWS V14.01,2013-08-21 06:55:00,
2013-08-21 01:00:00,64.8,46.3,29.89,North,-999,7.0,8.0,51,0.00,,,0.00,0.00,VWS V14.01,2013-08-21 07:00:00,
2013-08-21 01:05:00,65.1,46.5,29.89,North,-999,6.0,9.0,51,0.00,,,0.00,0.00,VWS V14.01,2013-08-21 07:05:00,
2013-08-21 01:10:00,65.0,45.9,29.90,North,-999,4.0,5.0,50,0.00,,,0.00,0.00,VWS V14.01,2013-08-21 07:10:00,
2013-08-21 01:15:00,65.5,45.3,29.89,North,-999,6.0,6.0,48,0.00,,,0.00,0.00,VWS V14.01,2013-08-21 07:15:00,
2013-08-21 01:20:00,66.5,45.1,29.90,North,-999,5.0,8.0,46,0.00,,,0.00,0.00,VWS V14.01,2013-08-21 07:20:00,
2013-08-21 01:25:00,66.7,44.7,29.90,North,-999,4.0,8.0,45,0.00,,,0.00,0.00,VWS V14.01,2013-08-21 07:25:00,
2013-08-21 01:30:00,67.2,43.4,29.90,North,-999,9.0,11.0,42,0.00,,,0.00,0.00,VWS V14.01,2013-08-21 07:30:00,
2013-08-21 01:35:00,68.4,44.4,29.90,North,-999,9.0,12.0,42,0.00,,,0.00,0.00,VWS V14.01,2013-08-21 07:35:00,
2013-08-21 01:40:00,67.8,44.5,29.90,North,-999,7.0,10.0,43,0.00,,,0.00,0.00,VWS V14.01,2013-08-21 07:40:00,
2013-08-21 01:45:00,67.3,44.7,29.90,North,-999,9.0,10.0,44,0.00,,,0.00,0.00,VWS V14.01,2013-08-21 07:45:00,
2013-08-21 01:50:00,67.5,43.6,29.90,North,-999,0.0,10.0,42,0.00,,,0.00,0.00,VWS V14.01,2013-08-21 07:50:00,
2013-08-21 01:55:00,68.0,42.8,29.90,North,-999,4.0,10.0,40,0.00,,,0.00,0.00,VWS V14.01,2013-08-21 07:55:00,
2013-08-21 02:00:00,69.1,41.0,29.90,North,-999,4.0,6.0,36,0.00,,,0.00,0.00,VWS V14.01,2013-08-21 08:00:00,
2013-08-21 02:05:00,70.5,41.6,29.90,North,-999,5.0,7.0,35,0.00,,,0.00,0.00,VWS V14.01,2013-08-21 08:05:00,
2013-08-21 02:10:00,71.9,41.3,29.91,North,-999,5.0,10.0,33,0.00,,,0.00,0.00,VWS V14.01,2013-08-21 08:10:00,
2013-08-21 02:15:00,73.7,39.5,29.91,North,-999,0.0,10.0,29,0.00,,,0.00,0.00,VWS V14.01,2013-08-21 08:15:00,
2013-08-21 02:20:00,74.9,39.6,29.91,North,-999,2.0,5.0,28,0.00,,,0.00,0.00,VWS V14.01,2013-08-21 08:20:00,
2013-08-21 02:25:00,75.3,40.0,29.91,North,-999,0.0,5.0,28,0.00,,,0.00,0.00,VWS V14.01,2013-08-21 08:25:00,
2013-08-21 02:30:00,75.2,39.9,29.91,North,-999,0.0,0.0,28,0.00,,,0.00,0.00,VWS V14.01,2013-08-21 08:30:00,
2013-08-21 02:35:00,74.4,41.0,29.91,North,-999,5.0,9.0,30,0.00,,,0.00,0.00,VWS V14.01,2013-08-21 08:35:00,
2013-08-21 02:40:00,73.5,40.2,29.91,North,-999,2.0,5.0,30,0.00,,,0.00,0.00,VWS V14.01,2013-08-21 08:40:00,
2013-08-21 02:45:00,73.0,40.6,29.91,North,-999,0.0,7.0,31,0.00,,,0.00,0.00,VWS V14.01,2013-08-21 08:45:00,
2013-08-21 02:50:00,72.4,40.1,29.91,North,-999,0.0,0.0,31,0.00,,,0.00,0.00,VWS V14.01,2013-08-21 08:50:00,
2013-08-21 02:55:00,72.0,39.7,29.91,North,-999,0.0,0.0,31,0.00,,,0.00,0.00,VWS V14.01,2013-08-21 08:55:00,
2013-08-21 03:00:00,71.9,39.7,29.91,North,-999,0.0,0.0,31,0.00,,,0.00,0.00,VWS V14.01,2013-08-21 09:00:00,
2013-08-21 03:05:00,71.8,39.6,29.91,North,-999,2.0,2.0,31,0.00,,,0.00,0.00,VWS V14.01,2013-08-21 09:05:00,
2013-08-21 03:10:00,70.0,40.4,29.92,North,-999,5.0,10.0,34,0.00,,,0.00,0.00,VWS V14.01,2013-08-21 09:10:00,
2013-08-21 03:15:00,70.6,39.3,29.92,North,-999,0.0,10.0,32,0.00,,,0.00,0.00,VWS V14.01,2013-08-21 09:15:00,
2013-08-21 03:20:00,71.1,39.8,29.92,North,-999,0.0,0.0,32,0.00,,,0.00,0.00,VWS V14.01,2013-08-21 09:20:00,
2013-08-21 03:25:00,68.4,40.4,29.92,North,-999,4.0,8.0,36,0.00,,,0.00,0.00,VWS V14.01,2013-08-21 09:25:00,
2013-08-21 03:30:00,69.0,40.2,29.92,North,-999,3.0,5.0,35,0.00,,,0.00,0.00,VWS V14.01,2013-08-21 09:30:00,
2013-08-21 03:35:00,69.9,41.0,29.92,North,-999,12.0,14.0,35,0.00,,,0.00,0.00,VWS V14.01,2013-08-21 09:35:00,
2013-08-21 03:40:00,71.3,40.7,29.92,North,-999,11.0,16.0,33,0.00,,,0.00,0.00,VWS V14.01,2013-08-21 09:40:00,
2013-08-21 03:45:00,71.7,41.1,29.92,North,-999,6.0,16.0,33,0.00,,,0.00,0.00,VWS V14.01,2013-08-21 09:45:00,
2013-08-21 03:50:00,71.6,41.0,29.93,North,-999,8.0,11.0,33,0.00,,,0.00,0.00,VWS V14.01,2013-08-21 09:50:00,
2013-08-21 03:55:00,71.4,41.6,29.92,North,-999,6.0,12.0,34,0.00,,,0.00,0.00,VWS V14.01,2013-08-21 09:55:00,
2013-08-21 04:00:00,71.3,42.3,29.93,North,-999,11.0,11.0,35,0.00,,,0.00,0.00,VWS V14.01,2013-08-21 10:00:00,
2013-08-21 04:05:00,71.2,42.2,29.93,North,-999,9.0,15.0,35,0.00,,,0.00,0.00,VWS V14.01,2013-08-21 10:05:00,
2013-08-21 04:10:00,71.2,42.9,29.93,North,-999,10.0,10.0,36,0.00,,,0.00,0.00,VWS V14.01,2013-08-21 10:10:00,
2013-08-21 04:15:00,70.9,42.6,29.93,North,-999,6.0,12.0,36,0.00,,,0.00,0.00,VWS V14.01,2013-08-21 10:15:00,
2013-08-21 04:20:00,70.8,43.3,29.94,North,-999,5.0,11.0,37,0.00,,,0.00,0.00,VWS V14.01,2013-08-21 10:20:00,
2013-08-21 04:25:00,70.6,43.1,29.94,North,-999,5.0,12.0,37,0.00,,,0.00,0.00,VWS V14.01,2013-08-21 10:25:00,
2013-08-21 04:30:00,70.4,43.6,29.94,North,-999,8.0,12.0,38,0.00,,,0.00,0.00,VWS V14.01,2013-08-21 10:30:00,
2013-08-21 04:35:00,70.3,43.5,29.94,North,-999,6.0,12.0,38,0.00,,,0.00,0.00,VWS V14.01,2013-08-21 10:35:00,
2013-08-21 04:40:00,70.2,44.1,29.94,North,-999,0.0,10.0,39,0.00,,,0.00,0.00,VWS V14.01,2013-08-21 10:40:00,
2013-08-21 04:45:00,69.9,43.8,29.94,North,-999,0.0,10.0,39,0.00,,,0.00,0.00,VWS V14.01,2013-08-21 10:45:00,
2013-08-21 04:50:00,69.6,44.2,29.94,North,-999,0.0,0.0,40,0.00,,,0.00,0.00,VWS V14.01,2013-08-21 10:50:00,
2013-08-21 04:55:00,69.3,44.0,29.94,North,-999,0.0,0.0,40,0.00,,,0.00,0.00,VWS V14.01,2013-08-21 10:55:00,
2013-08-21 05:00:00,69.1,44.4,29.94,North,-999,5.0,5.0,41,0.00,,,0.00,0.00,VWS V14.01,2013-08-21 11:00:00,
2013-08-21 05:05:00,69.1,44.4,29.94,North,-999,4.0,5.0,41,0.00,,,0.00,0.00,VWS V14.01,2013-08-21 11:05:00,
2013-08-21 05:10:00,68.8,44.8,29.94,North,-999,0.0,5.0,42,0.00,,,0.00,0.00,VWS V14.01,2013-08-21 11:10:00,
2013-08-21 05:15:00,68.6,44.6,29.94,North,-999,0.0,5.0,42,0.00,,,0.00,0.00,VWS V14.01,2013-08-21 11:15:00,
2013-08-21 05:20:00,68.5,44.5,29.95,North,-999,0.0,0.0,42,0.00,,,0.00,0.00,VWS V14.01,2013-08-21 11:20:00,
2013-08-21 05:25:00,68.2,44.9,29.95,North,-999,5.0,5.0,43,0.00,,,0.00,0.00,VWS V14.01,2013-08-21 11:25:00,
2013-08-21 05:30:00,68.0,45.3,29.95,North,-999,0.0,0.0,44,0.00,,,0.00,0.00,VWS V14.01,2013-08-21 11:30:00,
2013-08-21 05:35:00,67.4,45.3,29.95,North,-999,5.0,9.0,45,0.00,,,0.00,0.00,VWS V14.01,2013-08-21 11:35:00,
2013-08-21 05:40:00,66.9,44.9,29.96,North,-999,9.0,11.0,45,0.00,,,0.00,0.00,VWS V14.01,2013-08-21 11:40:00,
2013-08-21 05:45:00,67.0,45.6,29.96,North,-999,9.0,13.0,46,0.00,,,0.00,0.00,VWS V14.01,2013-08-21 11:45:00,
2013-08-21 05:50:00,67.0,45.0,29.96,North,-999,9.0,12.0,45,0.00,,,0.00,0.00,VWS V14.01,2013-08-21 11:50:00,
2013-08-21 05:55:00,67.2,45.2,29.96,North,-999,8.0,17.0,45,0.00,,,0.00,0.00,VWS V14.01,2013-08-21 11:55:00,
2013-08-21 06:00:00,67.4,44.8,29.96,North,-999,17.0,20.0,44,0.00,,,0.00,0.00,VWS V14.01,2013-08-21 12:00:00,
2013-08-21 06:05:00,67.5,44.8,29.96,North,-999,14.0,20.0,44,0.00,,,0.00,0.00,VWS V14.01,2013-08-21 12:05:00,
2013-08-21 06:10:00,67.9,45.2,29.96,North,-999,12.0,20.0,44,0.00,,,0.00,0.00,VWS V14.01,2013-08-21 12:10:00,
2013-08-21 06:15:00,68.4,45.0,29.96,North,-999,9.0,23.0,43,0.00,,,0.00,0.00,VWS V14.01,2013-08-21 12:15:00,
2013-08-21 06:20:00,68.4,45.0,29.96,North,-999,10.0,16.0,43,0.00,,,0.00,0.00,VWS V14.01,2013-08-21 12:20:00,
2013-08-21 06:25:00,68.4,45.0,29.97,North,-999,13.0,16.0,43,0.00,,,0.00,0.00,VWS V14.01,2013-08-21 12:25:00,
2013-08-21 06:30:00,68.4,45.0,29.97,North,-999,15.0,21.0,43,0.00,,,0.00,5.00,VWS V14.01,2013-08-21 12:30:00,
2013-08-21 06:35:00,68.5,45.1,29.97,North,-999,19.0,21.0,43,0.00,,,0.00,9.00,VWS V14.01,2013-08-21 12:35:00,
2013-08-21 06:40:00,68.5,45.1,29.97,North,-999,13.0,25.0,43,0.00,,,0.00,12.00,VWS V14.01,2013-08-21 12:40:00,
2013-08-21 06:45:00,68.4,45.0,29.97,North,-999,15.0,25.0,43,0.00,,,0.00,16.00,VWS V14.01,2013-08-21 12:45:00,
2013-08-21 06:50:00,68.4,45.0,29.97,North,-999,12.0,20.0,43,0.00,,,0.00,21.00,VWS V14.01,2013-08-21 12:50:00,
2013-08-21 06:55:00,68.4,45.0,29.97,North,-999,16.0,20.0,43,0.00,,,0.00,28.00,VWS V14.01,2013-08-21 12:55:00,
2013-08-21 07:00:00,68.3,45.0,29.97,North,-999,16.0,20.0,43,0.00,,,0.00,37.00,VWS V14.01,2013-08-21 13:00:00,
2013-08-21 07:05:00,68.4,45.0,29.97,North,-999,11.0,20.0,43,0.00,,,0.00,47.00,VWS V14.01,2013-08-21 13:05:00,
2013-08-21 07:10:00,68.1,45.4,29.97,North,-999,15.0,15.0,44,0.00,,,0.00,58.00,VWS V14.01,2013-08-21 13:10:00,
2013-08-21 07:15:00,67.9,45.2,29.97,North,-999,10.0,17.0,44,0.00,,,0.00,70.00,VWS V14.01,2013-08-21 13:15:00,
2013-08-21 07:19:00,68.2,44.9,29.98,North,-999,11.0,18.0,43,0.00,,,0.00,90.00,VWS V14.01,2013-08-21 13:19:00,
2013-08-21 07:24:00,68.4,45.0,29.98,North,-999,15.0,19.0,43,0.00,,,0.00,104.00,VWS V14.01,2013-08-21 13:24:00,
2013-08-21 07:29:00,68.6,44.6,29.98,North,-999,15.0,17.0,42,0.00,,,0.00,114.00,VWS V14.01,2013-08-21 13:29:00,
2013-08-21 07:34:00,68.7,44.1,29.98,North,-999,11.0,18.0,41,0.00,,,0.00,125.00,VWS V14.01,2013-08-21 13:34:00,
2013-08-21 07:39:00,69.0,44.3,29.98,North,-999,12.0,18.0,41,0.00,,,0.00,141.00,VWS V14.01,2013-08-21 13:39:00,
2013-08-21 07:44:00,69.2,43.9,29.98,North,-999,16.0,18.0,40,0.00,,,0.00,158.00,VWS V14.01,2013-08-21 13:44:00,
2013-08-21 07:49:00,69.4,44.1,29.99,North,-999,16.0,18.0,40,0.00,,,0.00,167.00,VWS V14.01,2013-08-21 13:49:00,
2013-08-21 07:54:00,69.5,44.2,29.98,North,-999,16.0,22.0,40,0.00,,,0.00,181.00,VWS V14.01,2013-08-21 13:54:00,
2013-08-21 07:59:00,69.8,43.8,29.98,North,-999,11.0,19.0,39,0.00,,,0.00,186.00,VWS V14.01,2013-08-21 13:59:00,
2013-08-21 08:04:00,70.0,43.9,29.99,North,-999,11.0,19.0,39,0.00,,,0.00,158.00,VWS V14.01,2013-08-21 14:04:00,
2013-08-21 08:09:00,69.9,43.2,29.99,North,-999,15.0,17.0,38,0.00,,,0.00,197.00,VWS V14.01,2013-08-21 14:09:00,
2013-08-21 08:14:00,70.1,43.3,29.99,North,-999,17.0,19.0,38,0.00,,,0.00,213.00,VWS V14.01,2013-08-21 14:14:00,
2013-08-21 08:19:00,70.3,44.2,29.99,North,-999,12.0,16.0,39,0.00,,,0.00,225.00,VWS V14.01,2013-08-21 14:19:00,
2013-08-21 08:24:00,70.4,43.6,29.99,North,-999,17.0,19.0,38,0.00,,,0.00,241.00,VWS V14.01,2013-08-21 14:24:00,
2013-08-21 08:29:00,70.6,44.5,29.99,North,-999,12.0,16.0,39,0.00,,,0.00,269.00,VWS V14.01,2013-08-21 14:29:00,
2013-08-21 08:34:00,70.9,44.0,29.99,North,-999,12.0,20.0,38,0.00,,,0.00,283.00,VWS V14.01,2013-08-21 14:34:00,
2013-08-21 08:39:00,71.2,43.6,29.99,North,-999,14.0,15.0,37,0.00,,,0.00,295.00,VWS V14.01,2013-08-21 14:39:00,
2013-08-21 08:44:00,71.4,43.8,29.99,North,-999,14.0,21.0,37,0.00,,,0.00,301.00,VWS V14.01,2013-08-21 14:44:00,
2013-08-21 08:49:00,71.6,43.3,30.00,North,-999,9.0,18.0,36,0.00,,,0.00,308.00,VWS V14.01,2013-08-21 14:49:00,
2013-08-21 08:54:00,71.7,44.1,29.99,North,-999,12.0,21.0,37,0.00,,,0.00,288.00,VWS V14.01,2013-08-21 14:54:00,
2013-08-21 08:59:00,71.9,44.9,30.00,North,-999,22.0,22.0,38,0.00,,,0.00,343.00,VWS V14.01,2013-08-21 14:59:00,
2013-08-21 09:04:00,72.0,45.0,30.00,North,-999,14.0,23.0,38,0.00,,,0.00,359.00,VWS V14.01,2013-08-21 15:04:00,
2013-08-21 09:09:00,72.3,43.9,30.00,North,-999,12.0,25.0,36,0.00,,,0.00,366.00,VWS V14.01,2013-08-21 15:09:00,
2013-08-21 09:14:00,72.6,44.1,30.00,North,-999,13.0,25.0,36,0.00,,,0.00,385.00,VWS V14.01,2013-08-21 15:14:00,
2013-08-21 09:19:00,72.8,44.3,30.00,North,-999,10.0,11.0,36,0.00,,,0.00,369.00,VWS V14.01,2013-08-21 15:19:00,
2013-08-21 09:24:00,73.3,45.5,30.00,North,-999,12.0,23.0,37,0.00,,,0.00,406.00,VWS V14.01,2013-08-21 15:24:00,
2013-08-21 09:29:00,73.6,45.0,30.00,North,-999,13.0,17.0,36,0.00,,,0.00,413.00,VWS V14.01,2013-08-21 15:29:00,
2013-08-21 09:34:00,73.7,45.8,30.00,North,-999,16.0,17.0,37,0.00,,,0.00,411.00,VWS V14.01,2013-08-21 15:34:00,
2013-08-21 09:39:00,73.7,44.4,30.00,North,-999,7.0,18.0,35,0.00,,,0.00,413.00,VWS V14.01,2013-08-21 15:39:00,
2013-08-21 09:44:00,73.7,45.1,30.00,North,-999,15.0,18.0,36,0.00,,,0.00,411.00,VWS V14.01,2013-08-21 15:44:00,
2013-08-21 09:49:00,73.7,44.4,30.00,North,-999,12.0,15.0,35,0.00,,,0.00,420.00,VWS V14.01,2013-08-21 15:49:00,
2013-08-21 09:54:00,74.0,46.1,30.00,North,-999,9.0,19.0,37,0.00,,,0.00,448.00,VWS V14.01,2013-08-21 15:54:00,
2013-08-21 09:59:00,74.1,44.7,30.00,North,-999,9.0,19.0,35,0.00,,,0.00,450.00,VWS V14.01,2013-08-21 15:59:00,
2013-08-21 10:04:00,74.4,45.7,30.00,North,-999,15.0,19.0,36,0.00,,,0.00,459.00,VWS V14.01,2013-08-21 16:04:00,
2013-08-21 10:09:00,74.6,44.4,30.00,North,-999,9.0,17.0,34,0.00,,,0.00,464.00,VWS V14.01,2013-08-21 16:09:00,
2013-08-21 10:14:00,75.0,46.3,30.00,North,-999,11.0,18.0,36,0.00,,,0.00,485.00,VWS V14.01,2013-08-21 16:14:00,
2013-08-21 10:19:00,75.4,45.9,30.00,North,-999,10.0,16.0,35,0.00,,,0.00,485.00,VWS V14.01,2013-08-21 16:19:00,
2013-08-21 10:24:00,75.9,44.8,30.00,North,-999,14.0,17.0,33,0.00,,,0.00,501.00,VWS V14.01,2013-08-21 16:24:00,
2013-08-21 10:29:00,76.0,44.8,30.00,North,-999,13.0,20.0,33,0.00,,,0.00,513.00,VWS V14.01,2013-08-21 16:29:00,
2013-08-21 10:34:00,76.0,45.6,30.01,North,-999,13.0,20.0,34,0.00,,,0.00,538.00,VWS V14.01,2013-08-21 16:34:00,
2013-08-21 10:39:00,76.2,44.2,30.00,North,-999,14.0,19.0,32,0.00,,,0.00,547.00,VWS V14.01,2013-08-21 16:39:00,
2013-08-21 10:44:00,76.6,44.6,30.00,North,-999,16.0,23.0,32,0.00,,,0.00,557.00,VWS V14.01,2013-08-21 16:44:00,
2013-08-21 10:49:00,76.7,44.7,30.00,North,-999,13.0,20.0,32,0.00,,,0.00,580.00,VWS V14.01,2013-08-21 16:49:00,
2013-08-21 10:54:00,77.3,45.2,30.01,North,-999,10.0,20.0,32,0.00,,,0.00,591.00,VWS V14.01,2013-08-21 16:54:00,
2013-08-21 10:59:00,77.7,45.5,30.00,North,-999,16.0,18.0,32,0.00,,,0.00,628.00,VWS V14.01,2013-08-21 16:59:00,
2013-08-21 11:04:00,77.4,44.4,30.00,North,-999,17.0,21.0,31,0.00,,,0.00,628.00,VWS V14.01,2013-08-21 17:04:00,
2013-08-21 11:09:00,77.5,45.3,30.00,North,-999,9.0,18.0,32,0.00,,,0.00,661.00,VWS V14.01,2013-08-21 17:09:00,
2013-08-21 11:14:00,77.9,44.9,30.00,North,-999,9.0,19.0,31,0.00,,,0.00,633.00,VWS V14.01,2013-08-21 17:14:00,
2013-08-21 11:19:00,78.5,45.4,30.00,North,-999,13.0,19.0,31,0.00,,,0.00,679.00,VWS V14.01,2013-08-21 17:19:00,
2013-08-21 11:24:00,78.8,45.6,30.00,North,-999,13.0,19.0,31,0.00,,,0.00,686.00,VWS V14.01,2013-08-21 17:24:00,
2013-08-21 11:29:00,78.9,45.7,30.00,North,-999,9.0,17.0,31,0.00,,,0.00,703.00,VWS V14.01,2013-08-21 17:29:00,
2013-08-21 11:34:00,79.3,45.2,30.00,North,-999,18.0,19.0,30,0.00,,,0.00,714.00,VWS V14.01,2013-08-21 17:34:00,
2013-08-21 11:39:00,79.3,45.2,30.00,North,-999,17.0,21.0,30,0.00,,,0.00,675.00,VWS V14.01,2013-08-21 17:39:00,
2013-08-21 11:44:00,79.6,44.6,30.00,North,-999,14.0,21.0,29,0.00,,,0.00,457.00,VWS V14.01,2013-08-21 17:44:00,
2013-08-21 11:49:00,79.3,43.4,30.00,North,-999,12.0,17.0,28,0.00,,,0.00,462.00,VWS V14.01,2013-08-21 17:49:00,
2013-08-21 11:54:00,79.5,45.4,30.00,North,-999,11.0,17.0,30,0.00,,,0.00,631.00,VWS V14.01,2013-08-21 17:54:00,
2013-08-21 11:59:00,80.0,44.0,29.99,North,-999,9.0,14.0,28,0.00,,,0.00,687.00,VWS V14.01,2013-08-21 17:59:00,
2013-08-21 12:04:00,80.5,44.4,30.00,North,-999,14.0,16.0,28,0.00,,,0.00,664.00,VWS V14.01,2013-08-21 18:04:00,
2013-08-21 12:09:00,80.5,44.4,30.00,North,-999,11.0,14.0,28,0.00,,,0.00,710.00,VWS V14.01,2013-08-21 18:09:00,
2013-08-21 12:14:00,80.4,44.3,30.00,North,-999,13.0,18.0,28,0.00,,,0.00,468.00,VWS V14.01,2013-08-21 18:14:00,
2013-08-21 12:19:00,80.7,43.7,30.00,North,-999,15.0,15.0,27,0.00,,,0.00,763.00,VWS V14.01,2013-08-21 18:19:00,
2013-08-21 12:24:00,80.8,43.7,30.00,North,-999,10.0,15.0,27,0.00,,,0.00,772.00,VWS V14.01,2013-08-21 18:24:00,
2013-08-21 12:29:00,80.7,42.7,30.00,North,-999,13.0,15.0,26,0.00,,,0.00,652.00,VWS V14.01,2013-08-21 18:29:00,
2013-08-21 12:34:00,80.9,42.8,30.00,North,-999,10.0,15.0,26,0.00,,,0.00,763.00,VWS V14.01,2013-08-21 18:34:00,
2013-08-21 12:39:00,81.1,43.0,30.00,North,-999,14.0,14.0,26,0.00,,,0.00,738.00,VWS V14.01,2013-08-21 18:39:00,
2013-08-21 12:44:00,81.2,44.1,30.00,North,-999,11.0,14.0,27,0.00,,,0.00,759.00,VWS V14.01,2013-08-21 18:44:00,
2013-08-21 12:49:00,81.4,43.3,29.99,North,-999,13.0,13.0,26,0.00,,,0.00,773.00,VWS V14.01,2013-08-21 18:49:00,
2013-08-21 12:54:00,81.8,43.6,29.99,North,-999,10.0,14.0,26,0.00,,,0.00,772.00,VWS V14.01,2013-08-21 18:54:00,
2013-08-21 12:59:00,82.1,44.8,29.99,North,-999,6.0,10.0,27,0.00,,,0.00,793.00,VWS V14.01,2013-08-21 18:59:00,
2013-08-21 13:03:00,82.3,43.0,29.99,North,-999,10.0,12.0,25,0.00,,,0.00,816.00,VWS V14.01,2013-08-21 19:03:00,
2013-08-21 13:08:00,82.1,42.8,29.99,North,-999,10.0,11.0,25,0.00,,,0.00,821.00,VWS V14.01,2013-08-21 19:08:00,
2013-08-21 13:13:00,82.4,44.1,29.99,North,-999,9.0,12.0,26,0.00,,,0.00,812.00,VWS V14.01,2013-08-21 19:13:00,
2013-08-21 13:18:00,82.3,44.0,29.99,North,-999,5.0,9.0,26,0.00,,,0.00,823.00,VWS V14.01,2013-08-21 19:18:00,
2013-08-21 13:23:00,82.4,43.1,29.99,North,-999,10.0,12.0,25,0.00,,,0.00,754.00,VWS V14.01,2013-08-21 19:23:00,
2013-08-21 13:28:00,82.7,45.3,29.99,North,-999,0.0,5.0,27,0.00,,,0.00,838.00,VWS V14.01,2013-08-21 19:28:00,
2013-08-21 13:33:00,83.2,43.8,29.99,North,-999,3.0,9.0,25,0.00,,,0.00,939.00,VWS V14.01,2013-08-21 19:33:00,
2013-08-21 13:38:00,83.2,44.8,29.99,North,-999,6.0,8.0,26,0.00,,,0.00,476.00,VWS V14.01,2013-08-21 19:38:00,
2013-08-21 13:43:00,83.4,43.9,30.00,North,-999,3.0,8.0,25,0.00,,,0.00,512.00,VWS V14.01,2013-08-21 19:43:00,
2013-08-21 13:48:00,83.6,44.1,29.99,North,-999,6.0,7.0,25,0.00,,,0.00,645.00,VWS V14.01,2013-08-21 19:48:00,
2013-08-21 13:53:00,83.5,44.0,29.99,North,-999,5.0,9.0,25,0.00,,,0.00,684.00,VWS V14.01,2013-08-21 19:53:00,
2013-08-21 13:58:00,83.2,44.8,29.99,North,-999,1.0,1.0,26,0.00,,,0.00,327.00,VWS V14.01,2013-08-21 19:58:00,
2013-08-21 14:03:00,83.2,44.8,29.99,North,-999,2.0,5.0,26,0.00,,,0.00,865.00,VWS V14.01,2013-08-21 20:03:00,
2013-08-21 14:08:00,83.7,44.2,29.99,North,-999,5.0,10.0,25,0.00,,,0.00,877.00,VWS V14.01,2013-08-21 20:08:00,
2013-08-21 14:13:00,84.0,43.4,29.99,North,-999,4.0,10.0,24,0.00,,,0.00,294.00,VWS V14.01,2013-08-21 20:13:00,
2013-08-21 14:18:00,83.8,44.3,29.99,North,-999,0.0,5.0,25,0.00,,,0.00,840.00,VWS V14.01,2013-08-21 20:18:00,
2013-08-21 14:23:00,84.0,46.5,29.99,North,-999,0.0,5.0,27,0.00,,,0.00,947.00,VWS V14.01,2013-08-21 20:23:00,
2013-08-21 14:28:00,84.8,45.1,29.99,North,-999,0.0,0.0,25,0.00,,,0.00,322.00,VWS V14.01,2013-08-21 20:28:00,
2013-08-21 14:33:00,84.6,48.9,29.99,North,-999,0.0,3.0,29,0.00,,,0.00,336.00,VWS V14.01,2013-08-21 20:33:00,
2013-08-21 14:38:00,83.6,48.0,29.99,North,-999,0.0,0.0,29,0.00,,,0.00,390.00,VWS V14.01,2013-08-21 20:38:00,
2013-08-21 14:43:00,83.1,43.7,29.99,North,-999,0.0,4.0,25,0.00,,,0.00,250.00,VWS V14.01,2013-08-21 20:43:00,
2013-08-21 14:48:00,83.0,44.6,29.99,North,-999,0.0,0.0,26,0.00,,,0.00,193.00,VWS V14.01,2013-08-21 20:48:00,
2013-08-21 14:53:00,82.9,45.5,29.99,North,-999,0.0,0.0,27,0.00,,,0.00,239.00,VWS V14.01,2013-08-21 20:53:00,
2013-08-21 14:58:00,82.9,45.5,29.99,North,-999,0.0,0.0,27,0.00,,,0.00,359.00,VWS V14.01,2013-08-21 20:58:00,
2013-08-21 15:03:00,83.1,44.7,29.99,North,-999,6.0,6.0,26,0.00,,,0.00,575.00,VWS V14.01,2013-08-21 21:03:00,
2013-08-21 15:08:00,83.4,45.0,29.99,North,-999,6.0,7.0,26,0.00,,,0.00,626.00,VWS V14.01,2013-08-21 21:08:00,
2013-08-21 15:13:00,83.4,43.9,29.99,North,-999,10.0,13.0,25,0.00,,,0.00,621.00,VWS V14.01,2013-08-21 21:13:00,
2013-08-21 15:18:00,83.4,46.0,29.99,North,-999,7.0,9.0,27,0.00,,,0.00,782.00,VWS V14.01,2013-08-21 21:18:00,
2013-08-21 15:23:00,83.5,46.0,29.99,North,-999,13.0,13.0,27,0.00,,,0.00,777.00,VWS V14.01,2013-08-21 21:23:00,
2013-08-21 15:28:00,83.0,46.6,29.99,North,-999,10.0,14.0,28,0.00,,,0.00,657.00,VWS V14.01,2013-08-21 21:28:00,
2013-08-21 15:33:00,83.1,46.7,29.99,North,-999,6.0,14.0,28,0.00,,,0.00,621.00,VWS V14.01,2013-08-21 21:33:00,
2013-08-21 15:38:00,83.4,46.0,29.99,North,-999,11.0,13.0,27,0.00,,,0.00,633.00,VWS V14.01,2013-08-21 21:38:00,
2013-08-21 15:43:00,83.3,46.8,30.00,North,-999,10.0,14.0,28,0.00,,,0.00,380.00,VWS V14.01,2013-08-21 21:43:00,
2013-08-21 15:48:00,82.9,45.5,29.99,North,-999,11.0,13.0,27,0.00,,,0.00,243.00,VWS V14.01,2013-08-21 21:48:00,
2013-08-21 15:53:00,82.4,47.9,29.99,North,-999,11.0,13.0,30,0.00,,,0.00,446.00,VWS V14.01,2013-08-21 21:53:00,
2013-08-21 15:58:00,82.3,45.0,29.99,North,-999,9.0,11.0,27,0.00,,,0.00,260.00,VWS V14.01,2013-08-21 21:58:00,
2013-08-21 16:03:00,82.3,46.0,29.99,North,-999,7.0,12.0,28,0.00,,,0.00,311.00,VWS V14.01,2013-08-21 22:03:00,
2013-08-21 16:08:00,82.2,43.9,29.99,North,-999,6.0,10.0,26,0.00,,,0.00,232.00,VWS V14.01,2013-08-21 22:08:00,
2013-08-21 16:13:00,82.3,46.0,29.99,North,-999,5.0,11.0,28,0.00,,,0.00,200.00,VWS V14.01,2013-08-21 22:13:00,
2013-08-21 16:18:00,82.4,47.0,29.99,North,-999,6.0,9.0,29,0.00,,,0.00,214.00,VWS V14.01,2013-08-21 22:18:00,
2013-08-21 16:23:00,82.0,48.4,29.99,North,-999,6.0,10.0,31,0.00,,,0.00,262.00,VWS V14.01,2013-08-21 22:23:00,
2013-08-21 16:28:00,81.7,47.3,29.99,North,-999,6.0,9.0,30,0.00,,,0.00,292.00,VWS V14.01,2013-08-21 22:28:00,
2013-08-21 16:33:00,81.8,46.5,29.99,North,-999,8.0,13.0,29,0.00,,,0.00,290.00,VWS V14.01,2013-08-21 22:33:00,
2013-08-21 16:38:00,82.0,47.5,29.99,North,-999,7.0,10.0,30,0.00,,,0.00,248.00,VWS V14.01,2013-08-21 22:38:00,
2013-08-21 16:43:00,81.7,48.2,29.99,North,-999,7.0,12.0,31,0.00,,,0.00,199.00,VWS V14.01,2013-08-21 22:43:00,
2013-08-21 16:48:00,81.2,48.6,29.99,North,-999,9.0,11.0,32,0.00,,,0.00,183.00,VWS V14.01,2013-08-21 22:48:00,
2013-08-21 16:53:00,80.8,46.5,29.99,North,-999,8.0,12.0,30,0.00,,,0.00,183.00,VWS V14.01,2013-08-21 22:53:00,
2013-08-21 16:58:00,80.7,46.4,30.00,North,-999,8.0,11.0,30,0.00,,,0.00,176.00,VWS V14.01,2013-08-21 22:58:00,
2013-08-21 17:03:00,80.6,47.2,29.99,North,-999,9.0,11.0,31,0.00,,,0.00,169.00,VWS V14.01,2013-08-21 23:03:00,
2013-08-21 17:08:00,80.6,46.3,30.00,North,-999,7.0,7.0,30,0.00,,,0.00,155.00,VWS V14.01,2013-08-21 23:08:00,
2013-08-21 17:13:00,80.7,45.5,29.99,North,-999,6.0,11.0,29,0.00,,,0.00,139.00,VWS V14.01,2013-08-21 23:13:00,
2013-08-21 17:18:00,80.7,46.4,30.00,North,-999,5.0,6.0,30,0.00,,,0.00,127.00,VWS V14.01,2013-08-21 23:18:00,
2013-08-21 17:23:00,80.5,45.3,30.00,North,-999,10.0,11.0,29,0.00,,,0.00,116.00,VWS V14.01,2013-08-21 23:23:00,
2013-08-21 17:28:00,80.8,44.7,30.00,North,-999,7.0,9.0,28,0.00,,,0.00,105.00,VWS V14.01,2013-08-21 23:28:00,
2013-08-21 17:33:00,80.7,45.5,30.00,North,-999,7.0,9.0,29,0.00,,,0.00,93.00,VWS V14.01,2013-08-21 23:33:00,
2013-08-21 17:38:00,80.2,46.0,30.00,North,-999,5.0,9.0,30,0.00,,,0.00,84.00,VWS V14.01,2013-08-21 23:38:00,
2013-08-21 17:43:00,79.8,45.6,30.00,North,-999,7.0,11.0,30,0.00,,,0.00,81.00,VWS V14.01,2013-08-21 23:43:00,
2013-08-21 17:48:00,79.7,44.7,30.00,North,-999,6.0,7.0,29,0.00,,,0.00,79.00,VWS V14.01,2013-08-21 23:48:00,
2013-08-21 17:53:00,79.5,45.4,30.00,North,-999,6.0,7.0,30,0.00,,,0.00,79.00,VWS V14.01,2013-08-21 23:53:00,
2013-08-21 17:58:00,78.9,47.4,30.00,North,-999,5.0,5.0,33,0.00,,,0.00,77.00,VWS V14.01,2013-08-21 23:58:00,
2013-08-21 18:03:00,77.6,50.7,30.01,North,-999,6.0,6.0,39,0.00,,,0.00,77.00,VWS V14.01,2013-08-22 00:03:00,
2013-08-21 18:08:00,76.7,49.2,30.01,North,-999,6.0,6.0,38,0.00,,,0.00,72.00,VWS V14.01,2013-08-22 00:08:00,
2013-08-21 18:13:00,76.2,51.5,30.01,North,-999,6.0,8.0,42,0.00,,,0.00,70.00,VWS V14.01,2013-08-22 00:13:00,
2013-08-21 18:17:00,75.3,51.9,30.01,North,-999,8.0,9.0,44,0.00,,,0.00,69.00,VWS V14.01,2013-08-22 00:17:00,
2013-08-21 18:22:00,74.3,51.6,30.01,North,-999,11.0,12.0,45,0.00,,,0.00,67.00,VWS V14.01,2013-08-22 00:22:00,
2013-08-21 18:27:00,73.9,51.8,30.01,North,-999,9.0,9.0,46,0.00,,,0.00,62.00,VWS V14.01,2013-08-22 00:27:00,
2013-08-21 18:32:00,73.2,52.9,30.01,North,-999,9.0,10.0,49,0.00,,,0.00,58.00,VWS V14.01,2013-08-22 00:32:00,
2013-08-21 18:37:00,72.9,52.6,30.00,North,-999,5.0,6.0,49,0.00,,,0.00,54.00,VWS V14.01,2013-08-22 00:37:00,
2013-08-21 18:42:00,74.1,48.9,30.01,North,-999,8.0,10.0,41,0.00,,,0.00,51.00,VWS V14.01,2013-08-22 00:42:00,
2013-08-21 18:47:00,76.5,47.6,30.01,North,-999,6.0,9.0,36,0.00,,,0.00,46.00,VWS V14.01,2013-08-22 00:47:00,
2013-08-21 18:52:00,77.6,47.0,30.01,North,-999,7.0,11.0,34,0.00,,,0.00,40.00,VWS V14.01,2013-08-22 00:52:00,
2013-08-21 18:57:00,76.2,51.5,30.01,North,-999,9.0,10.0,42,0.00,,,0.00,35.00,VWS V14.01,2013-08-22 00:57:00,
2013-08-21 19:02:00,73.4,52.0,30.01,North,-999,10.0,10.0,47,0.00,,,0.00,32.00,VWS V14.01,2013-08-22 01:02:00,
2013-08-21 19:07:00,72.5,51.7,30.01,North,-999,10.0,10.0,48,0.00,,,0.00,26.00,VWS V14.01,2013-08-22 01:07:00,
2013-08-21 19:12:00,72.4,51.0,30.00,North,-999,8.0,10.0,47,0.00,,,0.00,23.00,VWS V14.01,2013-08-22 01:12:00,
2013-08-21 19:17:00,73.7,47.9,30.01,North,-999,9.0,11.0,40,0.00,,,0.00,19.00,VWS V14.01,2013-08-22 01:17:00,
2013-08-21 19:22:00,73.5,50.9,30.01,North,-999,8.0,11.0,45,0.00,,,0.00,16.00,VWS V14.01,2013-08-22 01:22:00,
2013-08-21 19:27:00,73.0,49.8,30.01,North,-999,10.0,11.0,44,0.00,,,0.00,14.00,VWS V14.01,2013-08-22 01:27:00,
2013-08-21 19:32:00,73.5,49.7,30.01,North,-999,9.0,12.0,43,0.00,,,0.00,12.00,VWS V14.01,2013-08-22 01:32:00,
2013-08-21 19:37:00,74.1,49.6,30.01,North,-999,7.0,11.0,42,0.00,,,0.00,9.00,VWS V14.01,2013-08-22 01:37:00,
2013-08-21 19:42:00,74.7,48.8,30.01,North,-999,10.0,11.0,40,0.00,,,0.00,7.00,VWS V14.01,2013-08-22 01:42:00,
2013-08-21 19:47:00,75.2,49.2,30.01,North,-999,9.0,9.0,40,0.00,,,0.00,5.00,VWS V14.01,2013-08-22 01:47:00,
2013-08-21 19:52:00,75.4,48.8,30.01,North,-999,7.0,12.0,39,0.00,,,0.00,0.00,VWS V14.01,2013-08-22 01:52:00,
2013-08-21 19:57:00,75.5,48.8,30.01,North,-999,9.0,13.0,39,0.00,,,0.00,0.00,VWS V14.01,2013-08-22 01:57:00,
2013-08-21 20:02:00,75.3,48.7,30.01,North,-999,11.0,15.0,39,0.00,,,0.00,0.00,VWS V14.01,2013-08-22 02:02:00,
2013-08-21 20:07:00,75.0,48.4,30.01,North,-999,7.0,8.0,39,0.00,,,0.00,0.00,VWS V14.01,2013-08-22 02:07:00,
2013-08-21 20:12:00,74.0,50.1,30.01,North,-999,7.0,11.0,43,0.00,,,0.00,0.00,VWS V14.01,2013-08-22 02:12:00,
2013-08-21 20:17:00,72.8,50.2,30.01,North,-999,7.0,8.0,45,0.00,,,0.00,0.00,VWS V14.01,2013-08-22 02:17:00,
2013-08-21 20:22:00,72.1,50.8,30.02,North,-999,7.0,9.0,47,0.00,,,0.00,0.00,VWS V14.01,2013-08-22 02:22:00,
2013-08-21 20:27:00,71.3,51.2,30.01,North,-999,5.0,6.0,49,0.00,,,0.00,0.00,VWS V14.01,2013-08-22 02:27:00,
2013-08-21 20:32:00,71.4,50.1,30.01,North,-999,7.0,7.0,47,0.00,,,0.00,0.00,VWS V14.01,2013-08-22 02:32:00,
2013-08-21 20:37:00,72.9,49.1,30.01,North,-999,6.0,9.0,43,0.00,,,0.00,0.00,VWS V14.01,2013-08-22 02:37:00,
2013-08-21 20:42:00,73.4,49.6,30.01,North,-999,6.0,10.0,43,0.00,,,0.00,0.00,VWS V14.01,2013-08-22 02:42:00,
2013-08-21 20:47:00,73.6,49.1,30.01,North,-999,7.0,7.0,42,0.00,,,0.00,0.00,VWS V14.01,2013-08-22 02:47:00,
2013-08-21 20:52:00,73.7,49.2,30.01,North,-999,2.0,9.0,42,0.00,,,0.00,0.00,VWS V14.01,2013-08-22 02:52:00,
2013-08-21 20:57:00,73.7,48.6,30.01,North,-999,4.0,4.0,41,0.00,,,0.00,0.00,VWS V14.01,2013-08-22 02:57:00,
2013-08-21 21:02:00,74.0,50.7,30.01,North,-999,7.0,8.0,44,0.00,,,0.00,0.00,VWS V14.01,2013-08-22 03:02:00,
2013-08-21 21:07:00,72.1,50.8,30.01,North,-999,9.0,11.0,47,0.00,,,0.00,0.00,VWS V14.01,2013-08-22 03:07:00,
2013-08-21 21:12:00,70.7,50.6,30.01,North,-999,12.0,12.0,49,0.00,,,0.00,0.00,VWS V14.01,2013-08-22 03:12:00,
2013-08-21 21:17:00,70.5,50.4,30.02,North,-999,14.0,14.0,49,0.00,,,0.00,0.00,VWS V14.01,2013-08-22 03:17:00,
2013-08-21 21:22:00,70.6,50.5,30.02,North,-999,11.0,16.0,49,0.00,,,0.00,0.00,VWS V14.01,2013-08-22 03:22:00,
2013-08-21 21:27:00,70.6,51.1,30.02,North,-999,11.0,12.0,50,0.00,,,0.00,0.00,VWS V14.01,2013-08-22 03:27:00,
2013-08-21 21:32:00,70.3,50.8,30.02,North,-999,9.0,14.0,50,0.00,,,0.00,0.00,VWS V14.01,2013-08-22 03:32:00,
2013-08-21 21:37:00,70.6,51.1,30.02,North,-999,9.0,10.0,50,0.00,,,0.00,0.00,VWS V14.01,2013-08-22 03:37:00,
2013-08-21 21:42:00,71.4,51.3,30.02,North,-999,11.0,11.0,49,0.00,,,0.00,0.00,VWS V14.01,2013-08-22 03:42:00,
2013-08-21 21:47:00,71.9,51.2,30.02,North,-999,8.0,8.0,48,0.00,,,0.00,0.00,VWS V14.01,2013-08-22 03:47:00,
2013-08-21 21:52:00,71.6,51.5,30.03,North,-999,4.0,8.0,49,0.00,,,0.00,0.00,VWS V14.01,2013-08-22 03:52:00,
2013-08-21 21:57:00,71.1,51.0,30.03,North,-999,4.0,8.0,49,0.00,,,0.00,0.00,VWS V14.01,2013-08-22 03:57:00,
2013-08-21 22:01:00,71.1,51.0,30.03,North,-999,4.0,5.0,49,0.00,,,0.00,0.00,VWS V14.01,2013-08-22 04:01:00,
2013-08-21 22:06:00,71.0,50.9,30.03,North,-999,9.0,10.0,49,0.00,,,0.00,0.00,VWS V14.01,2013-08-22 04:06:00,
2013-08-21 22:11:00,71.4,50.7,30.03,North,-999,7.0,10.0,48,0.00,,,0.00,0.00,VWS V14.01,2013-08-22 04:11:00,
2013-08-21 22:16:00,71.6,51.5,30.03,North,-999,5.0,10.0,49,0.00,,,0.00,0.00,VWS V14.01,2013-08-22 04:16:00,
2013-08-21 22:21:00,71.1,51.0,30.03,North,-999,4.0,5.0,49,0.00,,,0.00,0.00,VWS V14.01,2013-08-22 04:21:00,
2013-08-21 22:26:00,70.5,52.6,30.03,North,-999,0.0,6.0,53,0.00,,,0.00,0.00,VWS V14.01,2013-08-22 04:26:00,
2013-08-21 22:31:00,70.1,51.2,30.03,North,-999,5.0,7.0,51,0.00,,,0.00,0.00,VWS V14.01,2013-08-22 04:31:00,
2013-08-21 22:36:00,69.2,52.8,30.03,North,-999,5.0,7.0,56,0.00,,,0.00,0.00,VWS V14.01,2013-08-22 04:36:00,
2013-08-21 22:41:00,68.7,53.3,30.03,North,-999,7.0,8.0,58,0.00,,,0.00,0.00,VWS V14.01,2013-08-22 04:41:00,
2013-08-21 22:46:00,68.5,52.2,30.03,North,-999,8.0,9.0,56,0.00,,,0.00,0.00,VWS V14.01,2013-08-22 04:46:00,
2013-08-21 22:50:00,69.5,51.6,30.03,North,-999,7.0,11.0,53,0.00,,,0.00,0.00,VWS V14.01,2013-08-22 04:50:00,
2013-08-21 22:55:00,70.0,51.1,30.03,North,-999,5.0,11.0,51,0.00,,,0.00,0.00,VWS V14.01,2013-08-22 04:55:00,
2013-08-21 23:00:00,70.2,51.8,30.03,North,-999,0.0,0.0,52,0.00,,,0.00,0.00,VWS V14.01,2013-08-22 05:00:00,
2013-08-21 23:05:00,70.3,51.3,30.03,North,-999,4.0,4.0,51,0.00,,,0.00,0.00,VWS V14.01,2013-08-22 05:05:00,
2013-08-21 23:10:00,70.7,50.6,30.03,North,-999,5.0,7.0,49,0.00,,,0.00,0.00,VWS V14.01,2013-08-22 05:10:00,
2013-08-21 23:15:00,71.1,51.0,30.03,North,-999,6.0,9.0,49,0.00,,,0.00,0.00,VWS V14.01,2013-08-22 05:15:00,
2013-08-21 23:20:00,71.3,50.6,30.03,North,-999,6.0,9.0,48,0.00,,,0.00,0.00,VWS V14.01,2013-08-22 05:20:00,
2013-08-21 23:25:00,71.8,50.5,30.03,North,-999,0.0,9.0,47,0.00,,,0.00,0.00,VWS V14.01,2013-08-22 05:25:00,
2013-08-21 23:30:00,72.1,50.2,30.03,North,-999,4.0,5.0,46,0.00,,,0.00,0.00,VWS V14.01,2013-08-22 05:30:00,
2013-08-21 23:35:00,71.7,51.5,30.03,North,-999,5.0,6.0,49,0.00,,,0.00,0.00,VWS V14.01,2013-08-22 05:35:00,
2013-08-21 23:40:00,71.3,51.2,30.03,North,-999,0.0,3.0,49,0.00,,,0.00,0.00,VWS V14.01,2013-08-22 05:40:00,
2013-08-21 23:45:00,71.3,51.2,30.03,North,-999,0.0,3.0,49,0.00,,,0.00,0.00,VWS V14.01,2013-08-22 05:45:00,
2013-08-21 23:50:00,71.3,51.2,30.03,North,-999,0.0,0.0,49,0.00,,,0.00,0.00,VWS V14.01,2013-08-22 05:50:00,
2013-08-21 23:55:00,70.5,53.6,30.03,North,-999,5.0,6.0,55,0.00,,,0.00,0.00,VWS V14.01,2013-08-22 05:55:00,